sensor_id;sensor_type;location;lat;lon;timestamp;temperature;humidity
12839;DHT22;6486;51.034;5.262;2023-05-07T00:02:14;17.50;71.20
12839;DHT22;6486;51.034;5.262;2023-05-07T00:04:40;17.50;71.30
12839;DHT22;6486;51.034;5.262;2023-05-07T00:07:06;17.50;71.40
12839;DHT22;6486;51.034;5.262;2023-05-07T00:09:32;17.40;71.50
12839;DHT22;6486;51.034;5.262;2023-05-07T00:11:57;17.40;71.50
12839;DHT22;6486;51.034;5.262;2023-05-07T00:14:23;17.40;71.60
12839;DHT22;6486;51.034;5.262;2023-05-07T00:16:48;17.40;71.60
12839;DHT22;6486;51.034;5.262;2023-05-07T00:19:14;17.40;71.70
12839;DHT22;6486;51.034;5.262;2023-05-07T00:21:40;17.40;71.70
12839;DHT22;6486;51.034;5.262;2023-05-07T00:24:06;17.40;71.80
12839;DHT22;6486;51.034;5.262;2023-05-07T00:26:31;17.40;71.90
12839;DHT22;6486;51.034;5.262;2023-05-07T00:28:57;17.40;71.90
12839;DHT22;6486;51.034;5.262;2023-05-07T00:31:23;17.40;71.90
12839;DHT22;6486;51.034;5.262;2023-05-07T00:33:48;17.50;72.00
12839;DHT22;6486;51.034;5.262;2023-05-07T00:36:14;17.50;72.00
12839;DHT22;6486;51.034;5.262;2023-05-07T00:38:39;17.50;72.00
12839;DHT22;6486;51.034;5.262;2023-05-07T00:41:05;17.50;72.00
12839;DHT22;6486;51.034;5.262;2023-05-07T00:43:32;17.50;72.00
12839;DHT22;6486;51.034;5.262;2023-05-07T00:45:57;17.50;72.10
12839;DHT22;6486;51.034;5.262;2023-05-07T00:48:23;17.50;72.10
12839;DHT22;6486;51.034;5.262;2023-05-07T00:50:50;17.50;72.10
12839;DHT22;6486;51.034;5.262;2023-05-07T00:53:16;17.50;72.10
12839;DHT22;6486;51.034;5.262;2023-05-07T00:55:42;17.50;72.10
12839;DHT22;6486;51.034;5.262;2023-05-07T00:58:07;17.50;72.10
12839;DHT22;6486;51.034;5.262;2023-05-07T01:00:33;17.50;72.20
12839;DHT22;6486;51.034;5.262;2023-05-07T01:02:59;17.50;72.20
12839;DHT22;6486;51.034;5.262;2023-05-07T01:05:26;17.50;72.20
12839;DHT22;6486;51.034;5.262;2023-05-07T01:07:53;17.50;72.20
12839;DHT22;6486;51.034;5.262;2023-05-07T01:10:20;17.50;72.20
12839;DHT22;6486;51.034;5.262;2023-05-07T01:12:47;17.50;72.20
12839;DHT22;6486;51.034;5.262;2023-05-07T01:15:14;17.50;72.10
12839;DHT22;6486;51.034;5.262;2023-05-07T01:17:41;17.50;72.80
12839;DHT22;6486;51.034;5.262;2023-05-07T01:20:08;17.50;72.20
12839;DHT22;6486;51.034;5.262;2023-05-07T01:22:37;17.50;72.10
12839;DHT22;6486;51.034;5.262;2023-05-07T01:25:04;17.50;72.10
12839;DHT22;6486;51.034;5.262;2023-05-07T01:27:30;17.50;72.10
12839;DHT22;6486;51.034;5.262;2023-05-07T01:29:55;17.50;72.20
12839;DHT22;6486;51.034;5.262;2023-05-07T01:32:43;17.40;72.20
12839;DHT22;6486;51.034;5.262;2023-05-07T01:35:11;17.40;72.40
12839;DHT22;6486;51.034;5.262;2023-05-07T01:37:38;17.40;72.40
12839;DHT22;6486;51.034;5.262;2023-05-07T01:40:05;17.40;72.40
12839;DHT22;6486;51.034;5.262;2023-05-07T01:42:32;17.40;72.50
12839;DHT22;6486;51.034;5.262;2023-05-07T01:44:58;17.40;72.50
12839;DHT22;6486;51.034;5.262;2023-05-07T01:47:25;17.30;72.40
12839;DHT22;6486;51.034;5.262;2023-05-07T01:49:50;17.30;72.50
12839;DHT22;6486;51.034;5.262;2023-05-07T01:52:16;17.30;72.50
12839;DHT22;6486;51.034;5.262;2023-05-07T01:54:42;17.30;72.60
12839;DHT22;6486;51.034;5.262;2023-05-07T01:57:08;17.30;72.60
12839;DHT22;6486;51.034;5.262;2023-05-07T01:59:33;17.30;72.70
12839;DHT22;6486;51.034;5.262;2023-05-07T02:01:59;17.30;72.80
12839;DHT22;6486;51.034;5.262;2023-05-07T02:04:26;17.30;72.80
12839;DHT22;6486;51.034;5.262;2023-05-07T02:06:51;17.30;72.90
12839;DHT22;6486;51.034;5.262;2023-05-07T02:09:18;17.20;72.90
12839;DHT22;6486;51.034;5.262;2023-05-07T02:11:44;17.20;73.10
12839;DHT22;6486;51.034;5.262;2023-05-07T02:14:10;17.20;73.10
12839;DHT22;6486;51.034;5.262;2023-05-07T02:16:36;17.20;73.10
12839;DHT22;6486;51.034;5.262;2023-05-07T02:19:01;17.20;73.10
12839;DHT22;6486;51.034;5.262;2023-05-07T02:21:27;17.20;73.10
12839;DHT22;6486;51.034;5.262;2023-05-07T02:23:53;17.20;73.10
12839;DHT22;6486;51.034;5.262;2023-05-07T02:26:19;17.30;73.20
12839;DHT22;6486;51.034;5.262;2023-05-07T02:28:47;17.20;73.20
12839;DHT22;6486;51.034;5.262;2023-05-07T02:31:12;17.30;73.30
12839;DHT22;6486;51.034;5.262;2023-05-07T02:33:38;17.30;73.30
12839;DHT22;6486;51.034;5.262;2023-05-07T02:36:11;17.30;73.30
12839;DHT22;6486;51.034;5.262;2023-05-07T02:38:37;17.30;73.30
12839;DHT22;6486;51.034;5.262;2023-05-07T02:41:03;17.30;73.30
12839;DHT22;6486;51.034;5.262;2023-05-07T02:43:28;17.20;73.20
12839;DHT22;6486;51.034;5.262;2023-05-07T02:46:05;17.30;73.40
12839;DHT22;6486;51.034;5.262;2023-05-07T02:48:31;17.30;73.40
12839;DHT22;6486;51.034;5.262;2023-05-07T02:50:57;17.20;73.30
12839;DHT22;6486;51.034;5.262;2023-05-07T02:53:23;17.20;73.40
12839;DHT22;6486;51.034;5.262;2023-05-07T02:55:52;17.20;73.40
12839;DHT22;6486;51.034;5.262;2023-05-07T02:58:18;17.20;73.40
12839;DHT22;6486;51.034;5.262;2023-05-07T03:00:43;17.30;73.40
12839;DHT22;6486;51.034;5.262;2023-05-07T03:03:09;17.20;73.30
12839;DHT22;6486;51.034;5.262;2023-05-07T03:05:36;17.30;73.40
12839;DHT22;6486;51.034;5.262;2023-05-07T03:08:02;17.20;73.30
12839;DHT22;6486;51.034;5.262;2023-05-07T03:10:28;17.20;73.30
12839;DHT22;6486;51.034;5.262;2023-05-07T03:12:53;17.20;73.40
12839;DHT22;6486;51.034;5.262;2023-05-07T03:15:19;17.20;73.30
12839;DHT22;6486;51.034;5.262;2023-05-07T03:17:45;17.20;73.30
12839;DHT22;6486;51.034;5.262;2023-05-07T03:20:11;17.20;73.40
12839;DHT22;6486;51.034;5.262;2023-05-07T03:22:36;17.20;73.50
12839;DHT22;6486;51.034;5.262;2023-05-07T03:25:02;17.10;73.40
12839;DHT22;6486;51.034;5.262;2023-05-07T03:27:28;17.10;73.50
12839;DHT22;6486;51.034;5.262;2023-05-07T03:29:53;17.10;73.50
12839;DHT22;6486;51.034;5.262;2023-05-07T03:32:19;17.10;73.40
12839;DHT22;6486;51.034;5.262;2023-05-07T03:34:44;17.10;73.40
12839;DHT22;6486;51.034;5.262;2023-05-07T03:37:10;17.10;73.40
12839;DHT22;6486;51.034;5.262;2023-05-07T03:39:36;17.10;73.40
12839;DHT22;6486;51.034;5.262;2023-05-07T03:42:01;17.10;73.40
12839;DHT22;6486;51.034;5.262;2023-05-07T03:44:27;17.10;73.40
12839;DHT22;6486;51.034;5.262;2023-05-07T03:46:53;17.10;73.40
12839;DHT22;6486;51.034;5.262;2023-05-07T03:49:19;17.00;73.30
12839;DHT22;6486;51.034;5.262;2023-05-07T03:51:44;17.00;73.40
12839;DHT22;6486;51.034;5.262;2023-05-07T03:54:10;17.00;73.40
12839;DHT22;6486;51.034;5.262;2023-05-07T03:56:36;17.00;73.60
12839;DHT22;6486;51.034;5.262;2023-05-07T03:59:01;17.00;73.60
12839;DHT22;6486;51.034;5.262;2023-05-07T04:01:27;17.00;73.60
12839;DHT22;6486;51.034;5.262;2023-05-07T04:03:53;17.00;73.60
12839;DHT22;6486;51.034;5.262;2023-05-07T04:06:18;17.00;73.60
12839;DHT22;6486;51.034;5.262;2023-05-07T04:08:44;17.00;73.60
12839;DHT22;6486;51.034;5.262;2023-05-07T04:11:10;17.00;73.60
12839;DHT22;6486;51.034;5.262;2023-05-07T04:13:35;16.90;73.70
12839;DHT22;6486;51.034;5.262;2023-05-07T04:16:02;16.90;73.80
12839;DHT22;6486;51.034;5.262;2023-05-07T04:18:28;16.90;74.00
12839;DHT22;6486;51.034;5.262;2023-05-07T04:20:54;16.90;74.00
12839;DHT22;6486;51.034;5.262;2023-05-07T04:23:20;16.90;74.00
12839;DHT22;6486;51.034;5.262;2023-05-07T04:25:46;16.90;74.00
12839;DHT22;6486;51.034;5.262;2023-05-07T04:28:12;16.90;74.10
12839;DHT22;6486;51.034;5.262;2023-05-07T04:30:38;16.90;74.10
12839;DHT22;6486;51.034;5.262;2023-05-07T04:33:04;17.00;74.10
12839;DHT22;6486;51.034;5.262;2023-05-07T04:35:29;17.00;74.10
12839;DHT22;6486;51.034;5.262;2023-05-07T04:37:55;17.00;74.00
12839;DHT22;6486;51.034;5.262;2023-05-07T04:40:21;17.00;73.90
12839;DHT22;6486;51.034;5.262;2023-05-07T04:42:46;17.00;73.90
12839;DHT22;6486;51.034;5.262;2023-05-07T04:45:12;17.00;74.00
12839;DHT22;6486;51.034;5.262;2023-05-07T04:47:39;17.00;74.00
12839;DHT22;6486;51.034;5.262;2023-05-07T04:50:06;17.00;74.10
12839;DHT22;6486;51.034;5.262;2023-05-07T04:52:32;17.00;74.10
12839;DHT22;6486;51.034;5.262;2023-05-07T04:54:59;17.00;74.20
12839;DHT22;6486;51.034;5.262;2023-05-07T04:57:26;17.00;74.20
12839;DHT22;6486;51.034;5.262;2023-05-07T04:59:52;17.00;74.30
12839;DHT22;6486;51.034;5.262;2023-05-07T05:02:17;17.10;74.40
12839;DHT22;6486;51.034;5.262;2023-05-07T05:04:43;17.10;74.30
12839;DHT22;6486;51.034;5.262;2023-05-07T05:07:09;17.10;74.30
12839;DHT22;6486;51.034;5.262;2023-05-07T05:09:34;17.10;74.30
12839;DHT22;6486;51.034;5.262;2023-05-07T05:12:00;17.10;74.30
12839;DHT22;6486;51.034;5.262;2023-05-07T05:14:25;17.10;74.30
12839;DHT22;6486;51.034;5.262;2023-05-07T05:16:51;17.20;74.40
12839;DHT22;6486;51.034;5.262;2023-05-07T05:19:17;17.20;74.50
12839;DHT22;6486;51.034;5.262;2023-05-07T05:21:43;17.20;74.50
12839;DHT22;6486;51.034;5.262;2023-05-07T05:24:08;17.30;74.50
12839;DHT22;6486;51.034;5.262;2023-05-07T05:26:34;17.30;74.50
12839;DHT22;6486;51.034;5.262;2023-05-07T05:29:00;17.30;74.50
12839;DHT22;6486;51.034;5.262;2023-05-07T05:31:25;17.40;74.50
12839;DHT22;6486;51.034;5.262;2023-05-07T05:33:51;17.40;74.50
12839;DHT22;6486;51.034;5.262;2023-05-07T05:36:17;17.40;74.40
12839;DHT22;6486;51.034;5.262;2023-05-07T05:38:43;17.50;74.50
12839;DHT22;6486;51.034;5.262;2023-05-07T05:41:09;17.50;74.30
12839;DHT22;6486;51.034;5.262;2023-05-07T05:43:35;17.60;74.40
12839;DHT22;6486;51.034;5.262;2023-05-07T05:46:01;17.60;74.30
12839;DHT22;6486;51.034;5.262;2023-05-07T05:48:26;17.60;74.30
12839;DHT22;6486;51.034;5.262;2023-05-07T05:50:52;17.70;74.30
12839;DHT22;6486;51.034;5.262;2023-05-07T05:53:18;17.70;74.20
12839;DHT22;6486;51.034;5.262;2023-05-07T05:55:44;17.70;74.10
12839;DHT22;6486;51.034;5.262;2023-05-07T05:58:09;17.80;74.20
12839;DHT22;6486;51.034;5.262;2023-05-07T06:00:35;17.90;74.10
12839;DHT22;6486;51.034;5.262;2023-05-07T06:03:01;17.90;74.10
12839;DHT22;6486;51.034;5.262;2023-05-07T06:05:26;17.90;74.00
12839;DHT22;6486;51.034;5.262;2023-05-07T06:07:52;18.00;74.10
12839;DHT22;6486;51.034;5.262;2023-05-07T06:10:18;18.00;73.90
12839;DHT22;6486;51.034;5.262;2023-05-07T06:12:43;18.10;73.90
12839;DHT22;6486;51.034;5.262;2023-05-07T06:15:10;18.10;73.80
12839;DHT22;6486;51.034;5.262;2023-05-07T06:17:35;18.20;73.90
12839;DHT22;6486;51.034;5.262;2023-05-07T06:20:01;18.20;73.80
12839;DHT22;6486;51.034;5.262;2023-05-07T06:22:27;18.20;73.60
12839;DHT22;6486;51.034;5.262;2023-05-07T06:24:52;18.30;73.70
12839;DHT22;6486;51.034;5.262;2023-05-07T06:27:18;18.30;73.60
12839;DHT22;6486;51.034;5.262;2023-05-07T06:29:44;18.40;73.50
12839;DHT22;6486;51.034;5.262;2023-05-07T06:32:10;18.40;73.50
12839;DHT22;6486;51.034;5.262;2023-05-07T06:34:37;18.40;73.30
12839;DHT22;6486;51.034;5.262;2023-05-07T06:37:02;18.50;73.40
12839;DHT22;6486;51.034;5.262;2023-05-07T06:39:28;18.50;73.30
12839;DHT22;6486;51.034;5.262;2023-05-07T06:41:54;18.60;73.30
12839;DHT22;6486;51.034;5.262;2023-05-07T06:44:19;18.60;73.20
12839;DHT22;6486;51.034;5.262;2023-05-07T06:46:45;18.70;73.20
12839;DHT22;6486;51.034;5.262;2023-05-07T06:49:12;18.70;73.70
12839;DHT22;6486;51.034;5.262;2023-05-07T06:51:38;18.80;73.00
12839;DHT22;6486;51.034;5.262;2023-05-07T06:54:04;18.90;72.90
12839;DHT22;6486;51.034;5.262;2023-05-07T06:56:30;19.00;72.80
12839;DHT22;6486;51.034;5.262;2023-05-07T06:58:56;19.10;72.70
12839;DHT22;6486;51.034;5.262;2023-05-07T07:01:21;19.20;72.60
12839;DHT22;6486;51.034;5.262;2023-05-07T07:03:47;19.30;72.40
12839;DHT22;6486;51.034;5.262;2023-05-07T07:06:13;19.50;72.20
12839;DHT22;6486;51.034;5.262;2023-05-07T07:08:38;19.60;72.00
12839;DHT22;6486;51.034;5.262;2023-05-07T07:11:05;19.70;71.80
12839;DHT22;6486;51.034;5.262;2023-05-07T07:13:31;19.80;71.70
12839;DHT22;6486;51.034;5.262;2023-05-07T07:15:56;19.80;71.50
12839;DHT22;6486;51.034;5.262;2023-05-07T07:18:22;19.90;71.50
12839;DHT22;6486;51.034;5.262;2023-05-07T07:20:48;20.00;71.50
12839;DHT22;6486;51.034;5.262;2023-05-07T07:23:14;20.00;71.40
12839;DHT22;6486;51.034;5.262;2023-05-07T07:25:39;20.00;71.20
12839;DHT22;6486;51.034;5.262;2023-05-07T07:28:05;20.10;71.40
12839;DHT22;6486;51.034;5.262;2023-05-07T07:30:31;20.10;71.30
12839;DHT22;6486;51.034;5.262;2023-05-07T07:32:57;20.10;71.10
12839;DHT22;6486;51.034;5.262;2023-05-07T07:35:28;20.20;70.90
12839;DHT22;6486;51.034;5.262;2023-05-07T07:37:54;20.20;70.70
12839;DHT22;6486;51.034;5.262;2023-05-07T07:40:19;20.20;70.50
12839;DHT22;6486;51.034;5.262;2023-05-07T07:42:45;20.10;70.50
12839;DHT22;6486;51.034;5.262;2023-05-07T07:45:11;20.10;70.50
12839;DHT22;6486;51.034;5.262;2023-05-07T07:47:37;20.10;70.30
12839;DHT22;6486;51.034;5.262;2023-05-07T07:50:03;20.10;70.30
12839;DHT22;6486;51.034;5.262;2023-05-07T07:52:29;20.10;70.20
12839;DHT22;6486;51.034;5.262;2023-05-07T07:54:54;20.20;70.20
12839;DHT22;6486;51.034;5.262;2023-05-07T07:57:20;20.20;70.00
12839;DHT22;6486;51.034;5.262;2023-05-07T07:59:46;20.30;70.00
12839;DHT22;6486;51.034;5.262;2023-05-07T08:02:11;20.30;69.80
12839;DHT22;6486;51.034;5.262;2023-05-07T08:04:37;20.30;69.70
12839;DHT22;6486;51.034;5.262;2023-05-07T08:07:03;20.30;69.50
12839;DHT22;6486;51.034;5.262;2023-05-07T08:09:29;20.30;69.40
12839;DHT22;6486;51.034;5.262;2023-05-07T08:11:55;20.40;69.40
12839;DHT22;6486;51.034;5.262;2023-05-07T08:14:20;20.40;69.30
12839;DHT22;6486;51.034;5.262;2023-05-07T08:16:46;20.40;68.80
12839;DHT22;6486;51.034;5.262;2023-05-07T08:19:12;20.40;68.80
12839;DHT22;6486;51.034;5.262;2023-05-07T08:21:40;20.40;68.80
12839;DHT22;6486;51.034;5.262;2023-05-07T08:24:06;20.50;68.80
12839;DHT22;6486;51.034;5.262;2023-05-07T08:26:31;20.50;68.70
12839;DHT22;6486;51.034;5.262;2023-05-07T08:28:57;20.60;68.70
12839;DHT22;6486;51.034;5.262;2023-05-07T08:31:23;20.60;68.60
12839;DHT22;6486;51.034;5.262;2023-05-07T08:33:49;20.70;68.70
12839;DHT22;6486;51.034;5.262;2023-05-07T08:36:15;20.80;68.60
12839;DHT22;6486;51.034;5.262;2023-05-07T08:38:40;20.80;68.30
12839;DHT22;6486;51.034;5.262;2023-05-07T08:41:10;20.80;68.20
12839;DHT22;6486;51.034;5.262;2023-05-07T08:43:36;20.90;68.20
12839;DHT22;6486;51.034;5.262;2023-05-07T08:46:04;20.90;68.10
12839;DHT22;6486;51.034;5.262;2023-05-07T08:48:31;21.00;68.10
12839;DHT22;6486;51.034;5.262;2023-05-07T08:50:58;21.10;68.00
12839;DHT22;6486;51.034;5.262;2023-05-07T08:53:24;21.10;67.90
12839;DHT22;6486;51.034;5.262;2023-05-07T08:55:51;21.20;67.90
12839;DHT22;6486;51.034;5.262;2023-05-07T08:58:18;21.20;67.80
12839;DHT22;6486;51.034;5.262;2023-05-07T09:00:43;21.30;67.70
12839;DHT22;6486;51.034;5.262;2023-05-07T09:03:09;21.20;67.60
12839;DHT22;6486;51.034;5.262;2023-05-07T09:05:38;21.20;67.50
12839;DHT22;6486;51.034;5.262;2023-05-07T09:08:05;21.30;67.60
12839;DHT22;6486;51.034;5.262;2023-05-07T09:10:33;21.40;67.60
12839;DHT22;6486;51.034;5.262;2023-05-07T09:12:59;21.40;67.30
12839;DHT22;6486;51.034;5.262;2023-05-07T09:15:26;21.40;67.10
12839;DHT22;6486;51.034;5.262;2023-05-07T09:17:51;21.60;67.00
12839;DHT22;6486;51.034;5.262;2023-05-07T09:20:17;21.80;66.80
12839;DHT22;6486;51.034;5.262;2023-05-07T09:22:43;22.00;66.40
12839;DHT22;6486;51.034;5.262;2023-05-07T09:25:09;22.30;66.10
12839;DHT22;6486;51.034;5.262;2023-05-07T09:27:35;22.40;66.20
12839;DHT22;6486;51.034;5.262;2023-05-07T09:30:05;22.60;65.30
12839;DHT22;6486;51.034;5.262;2023-05-07T09:32:35;22.80;65.10
12839;DHT22;6486;51.034;5.262;2023-05-07T09:35:03;22.90;64.70
12839;DHT22;6486;51.034;5.262;2023-05-07T09:37:30;23.10;64.50
12839;DHT22;6486;51.034;5.262;2023-05-07T09:39:56;23.30;64.40
12839;DHT22;6486;51.034;5.262;2023-05-07T09:42:25;23.40;64.10
12839;DHT22;6486;51.034;5.262;2023-05-07T09:44:53;23.50;63.80
12839;DHT22;6486;51.034;5.262;2023-05-07T09:47:20;23.60;63.70
12839;DHT22;6486;51.034;5.262;2023-05-07T09:49:48;23.60;63.50
12839;DHT22;6486;51.034;5.262;2023-05-07T09:52:16;23.60;63.30
12839;DHT22;6486;51.034;5.262;2023-05-07T09:54:43;23.60;63.10
12839;DHT22;6486;51.034;5.262;2023-05-07T09:57:11;23.50;62.90
12839;DHT22;6486;51.034;5.262;2023-05-07T09:59:42;23.50;62.90
12839;DHT22;6486;51.034;5.262;2023-05-07T10:02:09;23.60;63.00
12839;DHT22;6486;51.034;5.262;2023-05-07T10:04:35;23.60;62.70
12839;DHT22;6486;51.034;5.262;2023-05-07T10:07:03;23.60;62.80
12839;DHT22;6486;51.034;5.262;2023-05-07T10:09:30;23.60;62.90
12839;DHT22;6486;51.034;5.262;2023-05-07T10:11:56;23.60;62.90
12839;DHT22;6486;51.034;5.262;2023-05-07T10:14:23;23.60;62.80
12839;DHT22;6486;51.034;5.262;2023-05-07T10:16:48;23.60;62.90
12839;DHT22;6486;51.034;5.262;2023-05-07T10:19:14;23.60;62.60
12839;DHT22;6486;51.034;5.262;2023-05-07T10:21:48;23.60;62.60
12839;DHT22;6486;51.034;5.262;2023-05-07T10:24:26;23.50;62.50
12839;DHT22;6486;51.034;5.262;2023-05-07T10:26:53;23.40;62.30
12839;DHT22;6486;51.034;5.262;2023-05-07T10:29:37;23.30;62.00
12839;DHT22;6486;51.034;5.262;2023-05-07T10:34:58;23.10;62.00
12839;DHT22;6486;51.034;5.262;2023-05-07T10:37:26;23.00;62.10
12839;DHT22;6486;51.034;5.262;2023-05-07T10:39:52;22.90;62.30
12839;DHT22;6486;51.034;5.262;2023-05-07T10:42:18;22.70;62.50
12839;DHT22;6486;51.034;5.262;2023-05-07T10:44:44;22.50;62.70
12839;DHT22;6486;51.034;5.262;2023-05-07T10:47:14;22.40;63.00
12839;DHT22;6486;51.034;5.262;2023-05-07T10:52:21;22.10;63.70
12839;DHT22;6486;51.034;5.262;2023-05-07T10:57:40;21.90;64.40
12839;DHT22;6486;51.034;5.262;2023-05-07T11:05:31;21.70;64.90
12839;DHT22;6486;51.034;5.262;2023-05-07T11:08:00;21.60;65.00
12839;DHT22;6486;51.034;5.262;2023-05-07T11:10:53;21.50;65.30
12839;DHT22;6486;51.034;5.262;2023-05-07T11:13:42;21.50;65.60
12839;DHT22;6486;51.034;5.262;2023-05-07T11:16:21;21.40;65.80
12839;DHT22;6486;51.034;5.262;2023-05-07T11:18:48;21.30;66.20
12839;DHT22;6486;51.034;5.262;2023-05-07T11:21:36;21.20;66.30
12839;DHT22;6486;51.034;5.262;2023-05-07T11:24:03;21.10;66.60
12839;DHT22;6486;51.034;5.262;2023-05-07T11:26:32;20.90;66.80
12839;DHT22;6486;51.034;5.262;2023-05-07T11:29:17;20.80;67.70
12839;DHT22;6486;51.034;5.262;2023-05-07T11:31:43;20.80;67.40
12839;DHT22;6486;51.034;5.262;2023-05-07T11:34:14;20.80;67.50
12839;DHT22;6486;51.034;5.262;2023-05-07T11:36:42;20.70;67.70
12839;DHT22;6486;51.034;5.262;2023-05-07T11:39:44;20.70;68.60
12839;DHT22;6486;51.034;5.262;2023-05-07T11:42:29;20.60;68.30
12839;DHT22;6486;51.034;5.262;2023-05-07T11:44:56;20.50;68.60
12839;DHT22;6486;51.034;5.262;2023-05-07T11:47:22;20.40;69.40
12839;DHT22;6486;51.034;5.262;2023-05-07T11:49:48;20.40;69.00
12839;DHT22;6486;51.034;5.262;2023-05-07T11:52:15;20.40;69.10
12839;DHT22;6486;51.034;5.262;2023-05-07T11:54:41;20.30;69.00
12839;DHT22;6486;51.034;5.262;2023-05-07T11:57:10;20.30;69.00
12839;DHT22;6486;51.034;5.262;2023-05-07T11:59:40;20.30;69.20
12839;DHT22;6486;51.034;5.262;2023-05-07T12:02:07;20.20;69.30
12839;DHT22;6486;51.034;5.262;2023-05-07T12:04:33;20.30;69.50
12839;DHT22;6486;51.034;5.262;2023-05-07T12:06:59;20.40;69.60
12839;DHT22;6486;51.034;5.262;2023-05-07T12:09:25;20.40;69.60
12839;DHT22;6486;51.034;5.262;2023-05-07T12:11:52;20.50;69.70
12839;DHT22;6486;51.034;5.262;2023-05-07T12:14:18;20.50;69.60
12839;DHT22;6486;51.034;5.262;2023-05-07T12:16:44;20.50;69.80
12839;DHT22;6486;51.034;5.262;2023-05-07T12:19:11;20.50;69.80
12839;DHT22;6486;51.034;5.262;2023-05-07T12:21:39;20.50;69.90
12839;DHT22;6486;51.034;5.262;2023-05-07T12:24:06;20.60;70.20
12839;DHT22;6486;51.034;5.262;2023-05-07T12:26:31;20.60;70.30
12839;DHT22;6486;51.034;5.262;2023-05-07T12:28:57;20.60;70.40
12839;DHT22;6486;51.034;5.262;2023-05-07T12:31:25;20.60;70.40
12839;DHT22;6486;51.034;5.262;2023-05-07T12:33:52;20.70;70.30
12839;DHT22;6486;51.034;5.262;2023-05-07T12:36:17;20.70;71.00
12839;DHT22;6486;51.034;5.262;2023-05-07T12:38:43;20.70;70.30
12839;DHT22;6486;51.034;5.262;2023-05-07T12:41:10;20.70;70.40
12839;DHT22;6486;51.034;5.262;2023-05-07T12:43:37;20.70;70.50
12839;DHT22;6486;51.034;5.262;2023-05-07T12:46:07;20.80;71.30
12839;DHT22;6486;51.034;5.262;2023-05-07T12:48:33;20.80;70.70
12839;DHT22;6486;51.034;5.262;2023-05-07T12:51:02;20.90;70.70
12839;DHT22;6486;51.034;5.262;2023-05-07T12:53:28;20.90;70.70
12839;DHT22;6486;51.034;5.262;2023-05-07T12:55:56;21.00;70.90
12839;DHT22;6486;51.034;5.262;2023-05-07T12:58:30;21.00;70.90
12839;DHT22;6486;51.034;5.262;2023-05-07T13:00:58;21.00;70.90
12839;DHT22;6486;51.034;5.262;2023-05-07T13:03:33;21.00;70.90
12839;DHT22;6486;51.034;5.262;2023-05-07T13:06:02;21.00;70.90
12839;DHT22;6486;51.034;5.262;2023-05-07T13:08:29;21.10;71.60
12839;DHT22;6486;51.034;5.262;2023-05-07T13:10:56;21.10;71.00
12839;DHT22;6486;51.034;5.262;2023-05-07T13:13:22;21.20;71.20
12839;DHT22;6486;51.034;5.262;2023-05-07T13:15:47;21.20;71.00
12839;DHT22;6486;51.034;5.262;2023-05-07T13:18:14;21.30;70.90
12839;DHT22;6486;51.034;5.262;2023-05-07T13:20:39;21.30;70.80
12839;DHT22;6486;51.034;5.262;2023-05-07T13:23:06;21.30;70.80
12839;DHT22;6486;51.034;5.262;2023-05-07T13:25:31;21.30;70.80
12839;DHT22;6486;51.034;5.262;2023-05-07T13:27:57;21.40;70.90
12839;DHT22;6486;51.034;5.262;2023-05-07T13:30:23;21.40;70.80
12839;DHT22;6486;51.034;5.262;2023-05-07T13:32:48;21.40;70.90
12839;DHT22;6486;51.034;5.262;2023-05-07T13:35:15;21.40;70.90
12839;DHT22;6486;51.034;5.262;2023-05-07T13:37:41;21.50;71.00
12839;DHT22;6486;51.034;5.262;2023-05-07T13:40:07;21.40;70.90
12839;DHT22;6486;51.034;5.262;2023-05-07T13:42:33;21.50;71.00
12839;DHT22;6486;51.034;5.262;2023-05-07T13:44:58;21.50;71.10
12839;DHT22;6486;51.034;5.262;2023-05-07T13:47:24;21.50;71.10
12839;DHT22;6486;51.034;5.262;2023-05-07T13:49:50;21.50;71.10
12839;DHT22;6486;51.034;5.262;2023-05-07T13:52:16;21.50;71.00
12839;DHT22;6486;51.034;5.262;2023-05-07T13:54:42;21.40;70.70
12839;DHT22;6486;51.034;5.262;2023-05-07T13:57:08;21.40;70.60
12839;DHT22;6486;51.034;5.262;2023-05-07T13:59:34;21.50;70.60
12839;DHT22;6486;51.034;5.262;2023-05-07T14:01:59;21.50;70.50
12839;DHT22;6486;51.034;5.262;2023-05-07T14:04:25;21.50;70.50
12839;DHT22;6486;51.034;5.262;2023-05-07T14:06:51;21.50;70.40
12839;DHT22;6486;51.034;5.262;2023-05-07T14:09:16;21.50;70.60
12839;DHT22;6486;51.034;5.262;2023-05-07T14:11:42;21.50;70.50
12839;DHT22;6486;51.034;5.262;2023-05-07T14:14:08;21.50;70.50
12839;DHT22;6486;51.034;5.262;2023-05-07T14:16:36;21.50;70.30
12839;DHT22;6486;51.034;5.262;2023-05-07T14:19:02;21.60;70.10
12839;DHT22;6486;51.034;5.262;2023-05-07T14:21:28;21.60;70.00
12839;DHT22;6486;51.034;5.262;2023-05-07T14:23:53;21.50;69.70
12839;DHT22;6486;51.034;5.262;2023-05-07T14:26:20;21.50;69.70
12839;DHT22;6486;51.034;5.262;2023-05-07T14:28:46;21.60;69.80
12839;DHT22;6486;51.034;5.262;2023-05-07T14:31:12;21.60;69.80
12839;DHT22;6486;51.034;5.262;2023-05-07T14:33:38;21.50;69.70
12839;DHT22;6486;51.034;5.262;2023-05-07T14:36:04;21.50;69.80
12839;DHT22;6486;51.034;5.262;2023-05-07T14:38:30;21.50;69.60
12839;DHT22;6486;51.034;5.262;2023-05-07T14:40:58;21.50;69.10
12839;DHT22;6486;51.034;5.262;2023-05-07T14:43:24;21.40;68.80
12839;DHT22;6486;51.034;5.262;2023-05-07T14:45:49;21.40;68.70
12839;DHT22;6486;51.034;5.262;2023-05-07T14:48:15;21.40;68.70
12839;DHT22;6486;51.034;5.262;2023-05-07T14:50:42;21.30;68.70
12839;DHT22;6486;51.034;5.262;2023-05-07T14:53:07;21.30;69.50
12839;DHT22;6486;51.034;5.262;2023-05-07T14:55:34;21.30;69.00
12839;DHT22;6486;51.034;5.262;2023-05-07T14:58:00;21.30;69.00
12839;DHT22;6486;51.034;5.262;2023-05-07T15:00:26;21.30;69.00
12839;DHT22;6486;51.034;5.262;2023-05-07T15:02:51;21.30;68.90
12839;DHT22;6486;51.034;5.262;2023-05-07T15:05:17;21.40;68.90
12839;DHT22;6486;51.034;5.262;2023-05-07T15:07:44;21.30;68.70
12839;DHT22;6486;51.034;5.262;2023-05-07T15:10:10;21.30;68.60
12839;DHT22;6486;51.034;5.262;2023-05-07T15:12:36;21.30;68.50
12839;DHT22;6486;51.034;5.262;2023-05-07T15:15:02;21.30;68.50
12839;DHT22;6486;51.034;5.262;2023-05-07T15:17:27;21.40;68.60
12839;DHT22;6486;51.034;5.262;2023-05-07T15:19:53;21.40;68.40
12839;DHT22;6486;51.034;5.262;2023-05-07T15:22:19;21.50;68.40
12839;DHT22;6486;51.034;5.262;2023-05-07T15:24:46;21.50;68.30
12839;DHT22;6486;51.034;5.262;2023-05-07T15:27:12;21.50;68.30
12839;DHT22;6486;51.034;5.262;2023-05-07T15:29:37;21.60;68.20
12839;DHT22;6486;51.034;5.262;2023-05-07T15:32:03;21.60;68.10
12839;DHT22;6486;51.034;5.262;2023-05-07T15:34:29;21.70;68.20
12839;DHT22;6486;51.034;5.262;2023-05-07T15:36:56;21.70;68.10
12839;DHT22;6486;51.034;5.262;2023-05-07T15:39:24;21.70;68.00
12839;DHT22;6486;51.034;5.262;2023-05-07T15:41:50;21.70;68.00
12839;DHT22;6486;51.034;5.262;2023-05-07T15:44:15;21.70;68.00
12839;DHT22;6486;51.034;5.262;2023-05-07T15:46:41;21.70;68.00
12839;DHT22;6486;51.034;5.262;2023-05-07T15:49:07;21.70;67.80
12839;DHT22;6486;51.034;5.262;2023-05-07T15:51:34;21.70;67.80
12839;DHT22;6486;51.034;5.262;2023-05-07T15:54:00;21.70;67.70
12839;DHT22;6486;51.034;5.262;2023-05-07T15:56:25;21.70;67.70